Time;durP1;ratioP1;P1;durP2;ratioP2;P2;SDS_P1;SDS_P2;PMS_P1;PMS_P2;Temp;Humidity;BMP_temperature;BMP_pressure;BME280_temperature;BME280_humidity;BME280_pressure;Samples;Min_cycle;Max_cycle;Signal;HPM_P1;HPM_P2
2023/06/11 00:02:05;;;;;;;16.20;11.57;;;16.50;99.90;;;;;;5085265;28;20491;-90
2023/06/11 00:04:34;;;;;;;15.57;11.30;;;16.50;99.90;;;;;;5085856;28;20434;-90
2023/06/11 00:07:02;;;;;;;18.05;13.40;;;16.50;99.90;;;;;;5085322;28;20402;-90
2023/06/11 00:09:28;;;;;;;17.10;13.40;;;16.50;99.90;;;;;;5085370;28;20472;-88
2023/06/11 00:11:54;;;;;;;14.93;11.85;;;16.50;99.90;;;;;;5085102;28;20433;-90
2023/06/11 00:14:21;;;;;;;15.33;11.17;;;16.50;99.90;;;;;;5068406;28;20406;-90
2023/06/11 00:16:47;;;;;;;17.05;12.15;;;16.50;99.90;;;;;;5085240;28;20418;-90
2023/06/11 00:19:13;;;;;;;16.15;12.10;;;16.80;99.90;;;;;;5068438;28;20401;-90
2023/06/11 00:21:43;;;;;;;18.60;14.03;;;16.50;99.90;;;;;;5068141;28;20425;-89
2023/06/11 00:24:13;;;;;;;19.00;12.88;;;16.50;99.90;;;;;;5088721;28;20405;-89
2023/06/11 00:26:40;;;;;;;13.15;10.55;;;16.50;99.90;;;;;;5092287;28;20926;-90
2023/06/11 00:29:06;;;;;;;14.55;11.13;;;16.80;99.90;;;;;;5092440;28;20476;-89
2023/06/11 00:31:32;;;;;;;19.13;13.93;;;16.60;99.90;;;;;;5092506;28;20426;-90
2023/06/11 00:33:59;;;;;;;18.13;14.40;;;16.50;99.90;;;;;;5109432;28;20449;-90
2023/06/11 00:36:26;;;;;;;16.52;12.70;;;16.60;99.90;;;;;;5092918;28;20405;-90
2023/06/11 00:38:53;;;;;;;17.05;11.82;;;16.60;99.90;;;;;;5092879;28;20408;-90
2023/06/11 00:41:24;;;;;;;17.17;13.68;;;16.50;99.90;;;;;;5075935;28;20434;-89
2023/06/11 00:43:54;;;;;;;16.52;13.75;;;16.50;99.90;;;;;;5092579;28;20402;-90
2023/06/11 00:46:21;;;;;;;16.47;14.30;;;16.80;99.90;;;;;;5075732;28;20402;-89
2023/06/11 00:48:48;;;;;;;18.48;13.45;;;16.70;99.90;;;;;;5092628;28;20404;-90
2023/06/11 00:51:17;;;;;;;16.90;13.38;;;16.50;99.90;;;;;;5092725;28;20407;-90
2023/06/11 00:53:42;;;;;;;17.33;13.43;;;16.50;99.90;;;;;;5092312;28;20436;-90
2023/06/11 00:56:08;;;;;;;17.88;12.95;;;16.50;99.90;;;;;;5109281;28;20451;-89
2023/06/11 00:58:34;;;;;;;15.93;12.60;;;16.50;99.90;;;;;;5109405;28;20428;-90
2023/06/11 01:01:05;;;;;;;16.42;13.82;;;16.50;99.90;;;;;;5075267;28;20392;-90
2023/06/11 01:03:33;;;;;;;16.92;12.50;;;16.50;99.90;;;;;;5109213;28;20488;-90
2023/06/11 01:06:06;;;;;;;14.43;12.48;;;16.50;99.90;;;;;;5108960;28;20456;-90
2023/06/11 01:08:38;;;;;;;16.27;13.30;;;16.50;99.90;;;;;;5074805;28;20408;-90
2023/06/11 01:11:08;;;;;;;17.73;14.75;;;16.70;99.90;;;;;;5092175;28;20427;-91
2023/06/11 01:13:36;;;;;;;13.80;12.40;;;16.50;99.90;;;;;;5092617;28;20396;-90
2023/06/11 01:16:14;;;;;;;16.20;13.45;;;16.50;99.90;;;;;;5091953;28;20408;-90
2023/06/11 01:18:53;;;;;;;17.70;13.50;;;16.50;99.90;;;;;;5075273;28;20404;-89
2023/06/11 01:21:29;;;;;;;14.18;12.75;;;16.70;99.90;;;;;;5074704;28;20477;-91
2023/06/11 01:24:13;;;;;;;14.45;12.63;;;16.60;99.90;;;;;;5092238;28;20396;-90
2023/06/11 01:27:00;;;;;;;13.18;11.45;;;16.50;99.90;;;;;;5092186;28;20408;-90
2023/06/11 01:29:27;;;;;;;14.35;12.48;;;16.40;99.90;;;;;;5074880;28;20404;-90
2023/06/11 01:31:53;;;;;;;13.37;11.57;;;16.40;99.90;;;;;;5074564;28;20404;-89
2023/06/11 01:34:19;;;;;;;14.50;12.43;;;16.40;99.90;;;;;;5091222;28;20412;-90
2023/06/11 01:36:44;;;;;;;13.73;12.17;;;16.50;99.90;;;;;;5108329;28;20416;-91
2023/06/11 01:39:11;;;;;;;14.63;12.75;;;16.40;99.90;;;;;;5074494;28;20431;-90
2023/06/11 01:41:37;;;;;;;13.23;12.02;;;16.40;99.90;;;;;;5074248;28;20513;-89
2023/06/11 01:44:02;;;;;;;14.15;12.75;;;16.30;99.90;;;;;;5074870;28;20811;-89
2023/06/11 01:46:28;;;;;;;15.30;13.70;;;16.30;99.90;;;;;;5125687;27;20401;-90
2023/06/11 01:48:54;;;;;;;14.73;12.30;;;16.30;99.90;;;;;;5074337;28;20503;-90
2023/06/11 01:51:21;;;;;;;15.63;13.50;;;16.40;99.90;;;;;;5091309;28;20414;-90
2023/06/11 01:53:47;;;;;;;14.70;13.05;;;16.30;99.90;;;;;;5091433;28;20499;-90
2023/06/11 01:56:13;;;;;;;15.70;12.80;;;16.30;99.90;;;;;;5074142;28;20476;-90
2023/06/11 01:58:38;;;;;;;14.18;12.65;;;16.70;99.90;;;;;;5108378;28;20396;-90
2023/06/11 02:01:04;;;;;;;13.57;12.17;;;16.60;99.90;;;;;;5074390;28;20407;-90
2023/06/11 02:03:30;;;;;;;13.95;12.43;;;16.40;99.90;;;;;;5124731;27;20400;-90
2023/06/11 02:05:55;;;;;;;14.32;12.63;;;16.50;99.90;;;;;;5091153;28;20413;-90
2023/06/11 02:08:21;;;;;;;13.03;11.80;;;16.40;99.90;;;;;;5090762;28;20413;-90
2023/06/11 02:10:47;;;;;;;13.07;11.70;;;16.40;99.90;;;;;;5107976;28;20393;-90
2023/06/11 02:13:12;;;;;;;14.00;12.43;;;16.70;99.90;;;;;;5124913;27;20465;-90
2023/06/11 02:15:38;;;;;;;15.27;13.32;;;16.30;99.90;;;;;;5107738;28;20891;-90
2023/06/11 02:18:04;;;;;;;13.47;12.07;;;16.30;99.90;;;;;;5091174;28;20404;-90
2023/06/11 02:20:29;;;;;;;16.15;13.13;;;16.40;99.90;;;;;;5107209;28;20480;-89
2023/06/11 02:22:55;;;;;;;14.87;13.17;;;16.50;99.90;;;;;;5073804;28;20949;-90
2023/06/11 02:25:21;;;;;;;14.48;12.98;;;16.50;99.90;;;;;;5090367;28;20416;-91
2023/06/11 02:27:49;;;;;;;14.17;12.77;;;16.50;99.90;;;;;;5087013;28;20413;-89
2023/06/11 02:30:16;;;;;;;15.02;13.43;;;16.30;99.90;;;;;;5070151;28;20418;-91
2023/06/11 02:32:42;;;;;;;14.68;13.18;;;16.40;99.90;;;;;;5070307;28;20422;-90
2023/06/11 02:35:08;;;;;;;14.65;13.25;;;16.40;99.90;;;;;;5086791;28;20507;-90
2023/06/11 02:37:34;;;;;;;14.90;13.50;;;16.30;99.90;;;;;;5086659;28;20464;-91
2023/06/11 02:39:59;;;;;;;14.23;12.95;;;16.30;99.90;;;;;;5086569;28;20410;-89
2023/06/11 02:42:25;;;;;;;13.77;12.33;;;16.40;99.90;;;;;;5069686;28;20425;-89
2023/06/11 02:44:51;;;;;;;14.40;13.10;;;16.30;99.90;;;;;;5085870;28;20406;-89
2023/06/11 02:47:16;;;;;;;15.17;13.67;;;16.50;99.90;;;;;;5086544;28;20398;-90
2023/06/11 02:49:42;;;;;;;14.50;13.20;;;16.30;99.90;;;;;;5086496;28;20501;-90
2023/06/11 02:52:07;;;;;;;13.70;12.43;;;16.20;99.90;;;;;;5069438;28;20901;-90
2023/06/11 02:54:33;;;;;;;15.17;12.87;;;16.20;99.90;;;;;;5086721;28;20446;-90
2023/06/11 02:56:59;;;;;;;14.88;13.50;;;16.20;99.90;;;;;;5086042;28;20485;-90
2023/06/11 02:59:24;;;;;;;15.10;13.53;;;16.20;99.90;;;;;;5086458;28;20445;-90
2023/06/11 03:01:50;;;;;;;14.30;12.80;;;16.20;99.90;;;;;;5069793;28;20454;-91
2023/06/11 03:04:16;;;;;;;15.53;14.13;;;16.10;99.90;;;;;;5086022;28;20406;-89
2023/06/11 03:06:41;;;;;;;15.00;13.60;;;16.20;99.90;;;;;;5085948;28;20508;-90
2023/06/11 03:09:07;;;;;;;15.37;13.77;;;16.10;99.90;;;;;;5069429;28;20461;-89
2023/06/11 03:11:32;;;;;;;15.13;13.83;;;16.40;99.90;;;;;;5086421;28;20406;-89
2023/06/11 03:13:58;;;;;;;15.57;14.10;;;16.20;99.90;;;;;;5069324;28;20458;-90
2023/06/11 03:16:23;;;;;;;15.30;13.87;;;16.10;99.90;;;;;;5086241;28;20429;-90
2023/06/11 03:18:49;;;;;;;15.45;13.95;;;16.10;99.90;;;;;;5069061;28;20402;-90
2023/06/11 03:21:15;;;;;;;15.67;14.10;;;16.50;99.90;;;;;;5085453;28;20432;-90
2023/06/11 03:23:40;;;;;;;15.75;14.25;;;16.30;99.90;;;;;;5086001;28;20446;-90
2023/06/11 03:26:06;;;;;;;15.73;14.30;;;16.20;99.90;;;;;;5068828;28;20498;-89
2023/06/11 03:28:31;;;;;;;16.08;14.50;;;16.20;99.90;;;;;;5085626;28;20398;-89
2023/06/11 03:30:59;;;;;;;15.95;14.27;;;16.20;99.90;;;;;;5085088;28;20410;-90
2023/06/11 03:33:25;;;;;;;15.45;14.00;;;16.10;99.90;;;;;;5068974;28;20548;-90
2023/06/11 03:35:50;;;;;;;14.80;13.52;;;16.10;99.90;;;;;;5068292;28;20414;-90
2023/06/11 03:38:16;;;;;;;15.60;14.10;;;16.10;99.90;;;;;;5085532;28;20414;-89
2023/06/11 03:40:42;;;;;;;16.67;15.00;;;16.10;99.90;;;;;;5085709;28;20518;-90
2023/06/11 03:43:07;;;;;;;15.70;14.30;;;16.40;99.90;;;;;;5085465;28;20428;-89
2023/06/11 03:45:33;;;;;;;15.50;14.03;;;16.10;99.90;;;;;;5085671;28;20410;-89
2023/06/11 03:48:02;;;;;;;15.95;14.43;;;16.10;99.90;;;;;;5085716;28;20409;-89
2023/06/11 03:50:27;;;;;;;15.65;14.35;;;16.20;99.90;;;;;;5085676;28;20406;-91
2023/06/11 03:52:53;;;;;;;15.23;13.93;;;16.10;99.90;;;;;;5085231;28;20418;-90
2023/06/11 03:55:19;;;;;;;14.73;13.43;;;16.20;99.90;;;;;;5068470;28;20493;-90
2023/06/11 03:57:45;;;;;;;15.67;14.07;;;16.20;99.90;;;;;;5085032;28;20443;-89
2023/06/11 04:00:11;;;;;;;14.97;13.63;;;16.20;99.90;;;;;;5084846;28;20406;-89
2023/06/11 04:02:37;;;;;;;14.85;13.57;;;16.20;99.90;;;;;;5068469;28;20422;-90
2023/06/11 04:05:03;;;;;;;14.48;13.18;;;16.40;99.90;;;;;;5085178;28;20497;-89
2023/06/11 04:07:29;;;;;;;14.23;13.13;;;16.30;99.90;;;;;;5085024;28;20402;-89
2023/06/11 04:09:54;;;;;;;15.65;14.18;;;16.50;99.90;;;;;;5085024;28;20792;-90
2023/06/11 04:12:20;;;;;;;15.30;13.80;;;16.50;99.90;;;;;;5068795;28;20509;-90
2023/06/11 04:14:46;;;;;;;13.75;12.52;;;16.50;99.90;;;;;;5068450;28;20549;-90
2023/06/11 04:17:11;;;;;;;15.60;14.00;;;16.50;99.90;;;;;;5085204;28;20420;-90
2023/06/11 04:19:38;;;;;;;14.50;13.20;;;16.60;99.90;;;;;;5068585;28;20408;-89
2023/06/11 04:22:04;;;;;;;14.57;13.38;;;16.70;99.90;;;;;;5084835;28;20426;-89
2023/06/11 04:24:30;;;;;;;14.57;13.27;;;16.80;99.90;;;;;;5085108;28;20941;-89
2023/06/11 04:26:56;;;;;;;14.83;13.47;;;17.10;99.90;;;;;;5084951;28;20441;-89
2023/06/11 04:29:23;;;;;;;14.38;13.05;;;17.00;99.90;;;;;;5084976;28;20935;-90
2023/06/11 04:31:50;;;;;;;14.30;13.00;;;17.20;99.90;;;;;;5084664;28;20404;-89
2023/06/11 04:34:17;;;;;;;13.50;12.40;;;17.60;99.90;;;;;;5085123;28;20417;-90
2023/06/11 04:36:43;;;;;;;14.35;13.07;;;17.60;99.90;;;;;;5068464;28;20754;-90
2023/06/11 04:39:09;;;;;;;13.90;12.60;;;17.40;99.90;;;;;;5068373;28;20460;-89
2023/06/11 04:41:36;;;;;;;14.15;12.95;;;17.60;99.90;;;;;;5068177;28;20426;-89
2023/06/11 04:44:03;;;;;;;14.90;13.60;;;17.60;99.90;;;;;;5068389;28;20412;-90
2023/06/11 04:46:29;;;;;;;14.45;13.35;;;17.70;99.90;;;;;;5085000;28;20393;-91
2023/06/11 04:49:00;;;;;;;14.02;12.82;;;17.80;99.90;;;;;;5067879;28;20505;-90
2023/06/11 04:51:32;;;;;;;14.57;13.37;;;18.10;99.90;;;;;;5068163;28;20414;-90
2023/06/11 04:54:07;;;;;;;14.43;13.18;;;18.10;99.90;;;;;;5084928;28;20823;-89
2023/06/11 04:56:33;;;;;;;15.25;13.85;;;18.20;99.90;;;;;;5068145;28;20406;-89
2023/06/11 04:58:59;;;;;;;14.13;12.82;;;18.70;99.90;;;;;;5085178;28;20398;-90
2023/06/11 05:01:30;;;;;;;14.38;13.18;;;18.40;99.90;;;;;;5084912;28;20457;-89
2023/06/11 05:03:56;;;;;;;13.60;12.43;;;18.50;99.90;;;;;;5085024;28;20418;-90
2023/06/11 05:06:23;;;;;;;14.00;12.70;;;18.60;99.90;;;;;;5067817;28;20405;-90
2023/06/11 05:08:50;;;;;;;13.70;12.60;;;18.90;99.90;;;;;;5086119;28;20409;-90
2023/06/11 05:11:16;;;;;;;13.52;12.40;;;18.90;99.90;;;;;;5088571;28;20410;-90
2023/06/11 05:13:42;;;;;;;13.55;12.43;;;19.10;99.90;;;;;;5088190;28;20402;-89
2023/06/11 05:16:08;;;;;;;14.15;12.95;;;19.10;99.90;;;;;;5088584;28;20417;-87
2023/06/11 05:18:34;;;;;;;13.40;12.20;;;19.60;99.90;;;;;;5071443;28;20402;-91
2023/06/11 05:21:00;;;;;;;13.77;12.55;;;19.30;99.90;;;;;;5071620;28;20425;-90
2023/06/11 05:23:29;;;;;;;13.70;12.30;;;19.50;99.90;;;;;;5071183;28;20432;-91
2023/06/11 05:26:01;;;;;;;13.20;12.07;;;19.60;99.90;;;;;;5071575;28;20414;-90
2023/06/11 05:28:27;;;;;;;13.65;12.45;;;19.80;99.90;;;;;;5071273;28;20421;-88
2023/06/11 05:30:53;;;;;;;13.63;12.43;;;19.90;99.90;;;;;;5071129;28;20401;-89
2023/06/11 05:33:18;;;;;;;12.70;11.68;;;20.00;99.90;;;;;;5088039;28;20990;-90
2023/06/11 05:35:45;;;;;;;12.95;11.75;;;20.20;99.90;;;;;;5071240;28;20418;-90
2023/06/11 05:38:11;;;;;;;13.15;11.95;;;20.30;99.90;;;;;;5071297;28;20402;-90
2023/06/11 05:40:37;;;;;;;12.40;11.40;;;20.40;99.90;;;;;;5088272;28;20489;-90
2023/06/11 05:43:03;;;;;;;12.80;11.60;;;20.50;99.90;;;;;;5088037;28;20422;-90
2023/06/11 05:45:33;;;;;;;12.23;11.20;;;20.70;99.90;;;;;;5070299;28;20406;-90
2023/06/11 05:47:59;;;;;;;11.85;10.80;;;20.80;99.90;;;;;;5070577;28;20424;-91
2023/06/11 05:50:25;;;;;;;11.55;10.55;;;20.90;99.90;;;;;;5070683;28;20455;-93
2023/06/11 05:52:51;;;;;;;11.40;10.40;;;21.20;99.90;;;;;;5070764;28;20402;-89
2023/06/11 05:55:16;;;;;;;11.90;10.50;;;21.10;99.90;;;;;;5087827;28;20459;-91
2023/06/11 05:57:42;;;;;;;11.18;10.18;;;21.40;99.90;;;;;;5087139;28;20898;-90
2023/06/11 06:00:12;;;;;;;11.20;10.10;;;21.20;99.90;;;;;;5070982;28;20406;-91
2023/06/11 06:02:38;;;;;;;10.65;9.65;;;21.40;99.90;;;;;;5086939;28;20425;-91
2023/06/11 06:05:04;;;;;;;10.07;9.27;;;21.40;99.90;;;;;;5087271;28;20497;-91
2023/06/11 06:07:30;;;;;;;10.38;9.48;;;21.60;99.90;;;;;;5087493;28;20498;-91
2023/06/11 06:09:56;;;;;;;11.17;10.03;;;21.70;99.90;;;;;;5070398;28;20944;-90
2023/06/11 06:12:21;;;;;;;10.98;9.98;;;21.70;99.90;;;;;;5087605;28;20402;-90
2023/06/11 06:14:47;;;;;;;10.70;9.80;;;21.90;99.90;;;;;;5086990;28;20387;-90
2023/06/11 06:17:13;;;;;;;9.98;9.18;;;21.90;99.90;;;;;;5070050;28;20410;-90
2023/06/11 06:19:38;;;;;;;10.27;9.30;;;22.20;99.90;;;;;;5069208;28;20836;-90
2023/06/11 06:22:04;;;;;;;10.87;9.47;;;22.00;99.90;;;;;;5086676;28;20790;-89
2023/06/11 06:24:30;;;;;;;10.60;9.60;;;22.00;99.90;;;;;;5086200;28;20413;-87
2023/06/11 06:26:58;;;;;;;10.38;9.48;;;22.10;99.90;;;;;;5070101;28;20406;-91
2023/06/11 06:29:25;;;;;;;10.00;9.20;;;22.10;99.90;;;;;;5086903;28;20467;-90
2023/06/11 06:31:51;;;;;;;10.13;9.23;;;22.20;99.90;;;;;;5086365;28;20418;-89
2023/06/11 06:34:17;;;;;;;9.83;9.03;;;22.40;99.90;;;;;;5086931;28;20425;-89
2023/06/11 06:36:43;;;;;;;9.85;8.98;;;22.60;99.90;;;;;;5086339;28;20402;-90
2023/06/11 06:39:09;;;;;;;10.30;9.30;;;22.60;99.90;;;;;;5069676;28;20440;-90
2023/06/11 06:41:34;;;;;;;10.20;9.40;;;22.70;99.90;;;;;;5086030;28;20522;-90
2023/06/11 06:44:00;;;;;;;9.95;8.95;;;23.10;99.90;;;;;;5069750;28;20908;-91
2023/06/11 06:46:26;;;;;;;10.03;9.10;;;22.80;99.90;;;;;;5069426;28;20406;-90
2023/06/11 06:48:51;;;;;;;9.70;8.80;;;23.00;99.90;;;;;;5069239;28;21294;-90
2023/06/11 06:51:20;;;;;;;10.38;9.45;;;22.90;99.90;;;;;;5069481;28;20455;-91
2023/06/11 06:53:50;;;;;;;10.38;9.00;;;23.40;99.90;;;;;;5069108;28;20475;-90
2023/06/11 06:56:17;;;;;;;10.52;9.45;;;23.70;99.90;;;;;;5069178;28;20493;-90
2023/06/11 06:58:43;;;;;;;9.80;8.88;;;23.20;99.90;;;;;;5085901;28;20483;-91
2023/06/11 07:01:09;;;;;;;10.00;9.10;;;23.30;99.90;;;;;;5069220;28;20441;-91
2023/06/11 07:03:34;;;;;;;9.88;8.98;;;23.30;99.90;;;;;;5069120;28;20782;-90
2023/06/11 07:06:01;;;;;;;10.57;9.13;;;23.30;99.90;;;;;;5085996;28;20442;-89
2023/06/11 07:08:26;;;;;;;10.52;9.50;;;23.90;99.90;;;;;;5069012;28;20409;-89
2023/06/11 07:10:54;;;;;;;9.63;8.73;;;23.90;99.90;;;;;;5086015;28;20761;-89
2023/06/11 07:13:21;;;;;;;9.90;8.98;;;23.80;99.90;;;;;;5069315;28;20405;-90
2023/06/11 07:15:46;;;;;;;10.00;8.90;;;23.80;98.30;;;;;;5085962;28;20462;-91
2023/06/11 07:18:12;;;;;;;10.57;8.98;;;23.90;99.30;;;;;;5069243;28;20398;-90
2023/06/11 07:20:38;;;;;;;10.02;9.05;;;23.90;99.90;;;;;;5068546;28;20421;-90
2023/06/11 07:23:03;;;;;;;9.77;8.82;;;23.90;99.20;;;;;;5085619;28;20456;-90
2023/06/11 07:25:30;;;;;;;10.93;9.83;;;24.20;99.90;;;;;;5085627;28;20406;-90
2023/06/11 07:27:59;;;;;;;11.25;9.13;;;24.30;97.40;;;;;;5085505;28;20402;-90
2023/06/11 07:30:28;;;;;;;9.45;8.48;;;24.60;98.40;;;;;;5085805;28;20785;-91
2023/06/11 07:32:54;;;;;;;10.30;9.32;;;24.40;99.90;;;;;;5085145;28;20430;-89
2023/06/11 07:35:20;;;;;;;10.13;9.15;;;24.60;99.30;;;;;;5085698;28;20973;-90
2023/06/11 07:37:47;;;;;;;9.95;8.95;;;24.70;96.30;;;;;;5085207;28;20449;-90
2023/06/11 07:40:13;;;;;;;9.82;8.90;;;24.70;97.60;;;;;;5085140;28;20485;-90
2023/06/11 07:42:39;;;;;;;9.40;8.68;;;24.60;94.20;;;;;;5068093;28;20729;-90
2023/06/11 07:45:08;;;;;;;9.60;8.70;;;24.60;94.80;;;;;;5085122;28;20401;-89
2023/06/11 07:47:34;;;;;;;9.80;8.38;;;24.70;96.80;;;;;;5068910;28;20924;-91
2023/06/11 07:50:00;;;;;;;9.10;8.40;;;24.80;97.60;;;;;;5085386;28;20403;-91
2023/06/11 07:52:27;;;;;;;10.05;9.15;;;25.00;95.70;;;;;;5068605;28;20758;-89
2023/06/11 07:54:52;;;;;;;9.82;9.02;;;25.10;94.80;;;;;;5068659;28;20463;-92
2023/06/11 07:57:18;;;;;;;10.00;9.20;;;25.10;94.80;;;;;;5068368;28;20406;-91
2023/06/11 07:59:43;;;;;;;9.37;8.47;;;25.20;94.50;;;;;;5068029;28;20397;-91
2023/06/11 08:02:10;;;;;;;9.20;8.40;;;25.40;95.60;;;;;;5068028;28;20421;-90
2023/06/11 08:04:37;;;;;;;9.77;8.65;;;25.50;94.80;;;;;;5085076;28;20855;-89
2023/06/11 08:07:03;;;;;;;9.02;8.18;;;25.60;94.80;;;;;;5084832;28;20398;-90
2023/06/11 08:09:36;;;;;;;9.20;8.30;;;25.70;95.10;;;;;;5068410;28;20413;-91
2023/06/11 08:12:05;;;;;;;9.13;8.32;;;25.80;92.80;;;;;;5084995;28;20406;-91
2023/06/11 08:14:32;;;;;;;9.07;8.27;;;25.90;89.40;;;;;;5084985;28;20408;-90
2023/06/11 08:16:59;;;;;;;9.18;8.27;;;26.00;86.30;;;;;;5084971;28;20404;-91
2023/06/11 08:19:26;;;;;;;9.32;8.52;;;26.00;90.10;;;;;;5067961;28;20793;-91
2023/06/11 08:21:52;;;;;;;8.80;8.00;;;25.90;90.60;;;;;;5084827;28;20520;-90
2023/06/11 08:24:18;;;;;;;9.32;8.43;;;26.20;92.50;;;;;;5084902;28;20459;-90
2023/06/11 08:26:44;;;;;;;8.57;7.82;;;26.30;85.70;;;;;;5084948;28;21093;-91
2023/06/11 08:29:10;;;;;;;8.73;7.93;;;26.60;93.50;;;;;;5084970;28;20489;-89
2023/06/11 08:31:36;;;;;;;8.75;7.95;;;26.60;91.80;;;;;;5084616;28;20491;-91
2023/06/11 08:34:01;;;;;;;8.63;7.83;;;26.70;88.40;;;;;;5084287;28;20928;-91
2023/06/11 08:36:27;;;;;;;8.85;8.05;;;26.70;88.50;;;;;;5067644;28;20398;-90
2023/06/11 08:38:53;;;;;;;8.75;8.05;;;27.00;81.50;;;;;;5067677;28;20397;-91
2023/06/11 08:41:19;;;;;;;8.43;7.63;;;27.00;74.70;;;;;;5067675;28;20916;-90
2023/06/11 08:43:45;;;;;;;8.68;7.88;;;27.00;80.00;;;;;;5069211;28;20468;-90
2023/06/11 08:46:14;;;;;;;8.68;7.88;;;27.10;78.50;;;;;;5071699;28;20844;-91
2023/06/11 08:48:42;;;;;;;8.15;7.30;;;27.10;84.40;;;;;;5072147;28;20402;-90
2023/06/11 08:51:12;;;;;;;8.48;7.75;;;27.30;75.10;;;;;;5088469;28;20406;-90
2023/06/11 08:53:39;;;;;;;8.38;7.57;;;27.20;70.80;;;;;;5088950;28;20908;-91
2023/06/11 08:56:06;;;;;;;8.10;7.50;;;27.20;74.70;;;;;;5088660;28;20445;-91
2023/06/11 08:58:34;;;;;;;7.90;7.20;;;27.50;80.30;;;;;;5071838;28;20928;-90
2023/06/11 09:01:12;;;;;;;8.60;7.82;;;27.40;82.00;;;;;;5088572;28;20398;-91
2023/06/11 09:03:38;;;;;;;8.40;7.07;;;27.60;69.60;;;;;;5071884;28;20417;-90
2023/06/11 09:06:04;;;;;;;8.15;7.40;;;27.60;81.90;;;;;;5088000;28;20489;-90
2023/06/11 09:08:30;;;;;;;8.38;7.65;;;27.80;77.00;;;;;;5087508;28;20410;-90
2023/06/11 09:10:55;;;;;;;8.37;7.67;;;27.80;80.50;;;;;;5088294;28;20418;-91
2023/06/11 09:13:26;;;;;;;8.38;7.57;;;28.20;76.50;;;;;;5071177;28;20406;-90
2023/06/11 09:15:54;;;;;;;8.07;7.35;;;28.30;79.40;;;;;;5087993;28;20497;-89
2023/06/11 09:18:22;;;;;;;8.55;7.75;;;28.40;73.70;;;;;;5071706;28;20394;-90
2023/06/11 09:20:50;;;;;;;8.40;7.60;;;28.50;73.70;;;;;;5088086;28;20402;-90
2023/06/11 09:23:25;;;;;;;7.80;7.00;;;28.70;66.80;;;;;;5087661;28;20429;-91
2023/06/11 09:25:50;;;;;;;8.20;6.75;;;28.70;62.20;;;;;;5087776;28;20458;-89
2023/06/11 09:28:16;;;;;;;8.50;7.70;;;28.80;71.80;;;;;;5070663;28;20405;-89
2023/06/11 09:30:51;;;;;;;7.97;7.38;;;28.90;65.70;;;;;;5070735;28;20907;-90
2023/06/11 09:33:17;;;;;;;7.88;7.07;;;29.10;67.70;;;;;;5070755;28;20440;-89
2023/06/11 09:35:46;;;;;;;8.30;7.60;;;29.20;71.70;;;;;;5071177;28;20442;-91
2023/06/11 09:38:15;;;;;;;7.70;7.10;;;29.40;61.10;;;;;;5088303;28;20398;-91
2023/06/11 09:40:46;;;;;;;8.40;7.60;;;29.50;56.40;;;;;;5070561;28;20410;-90
2023/06/11 09:43:12;;;;;;;7.63;6.95;;;29.40;58.60;;;;;;5087496;28;20429;-89
2023/06/11 09:45:38;;;;;;;7.45;6.82;;;29.60;64.70;;;;;;5087535;28;21189;-91
2023/06/11 09:48:05;;;;;;;7.73;7.03;;;29.80;67.40;;;;;;5087081;28;20394;-90
2023/06/11 09:50:33;;;;;;;7.20;6.50;;;29.90;61.80;;;;;;5070155;28;20406;-90
2023/06/11 09:53:02;;;;;;;8.00;7.20;;;29.90;60.40;;;;;;5070748;28;20436;-91
2023/06/11 09:55:30;;;;;;;8.13;7.32;;;30.10;53.90;;;;;;5087649;28;20406;-90
2023/06/11 09:57:56;;;;;;;8.07;7.32;;;30.20;61.00;;;;;;5070914;28;20750;-90
2023/06/11 10:00:22;;;;;;;7.50;6.90;;;30.20;55.40;;;;;;5070071;28;20414;-91
2023/06/11 10:02:47;;;;;;;7.50;6.90;;;30.70;59.00;;;;;;5087116;28;20438;-89
2023/06/11 10:05:14;;;;;;;7.23;6.63;;;30.80;54.90;;;;;;5086889;28;20442;-89
2023/06/11 10:07:57;;;;;;;7.20;6.60;;;30.90;55.80;;;;;;5070786;28;20497;-91
2023/06/11 10:10:24;;;;;;;7.20;6.57;;;31.00;54.30;;;;;;5086755;28;20977;-91
2023/06/11 10:12:51;;;;;;;6.78;6.20;;;31.20;52.90;;;;;;5069784;28;20398;-89
2023/06/11 10:15:17;;;;;;;6.65;6.05;;;31.40;53.70;;;;;;5086706;28;20477;-89
2023/06/11 10:17:48;;;;;;;6.90;5.90;;;31.60;52.90;;;;;;5069939;28;20433;-89
2023/06/11 10:20:19;;;;;;;6.18;5.65;;;31.70;50.20;;;;;;5070346;28;20459;-91
2023/06/11 10:22:45;;;;;;;6.25;5.65;;;31.70;49.20;;;;;;5086722;28;20949;-90
2023/06/11 10:25:11;;;;;;;6.70;6.20;;;31.80;51.40;;;;;;5086498;28;20394;-90
2023/06/11 10:27:40;;;;;;;6.45;5.95;;;32.00;49.80;;;;;;5086369;28;20459;-89
2023/06/11 10:30:07;;;;;;;6.93;6.23;;;32.10;48.20;;;;;;5086389;28;20409;-90
2023/06/11 10:32:33;;;;;;;5.63;5.22;;;32.40;47.80;;;;;;5086718;28;20482;-89
2023/06/11 10:35:05;;;;;;;7.10;5.63;;;32.50;47.70;;;;;;5086822;28;20493;-91
2023/06/11 10:37:37;;;;;;;5.75;4.93;;;32.70;45.40;;;;;;5069840;28;20812;-92
2023/06/11 10:40:05;;;;;;;5.80;5.20;;;32.90;45.60;;;;;;5069844;28;20836;-91
2023/06/11 10:42:39;;;;;;;5.85;5.35;;;33.00;45.20;;;;;;5086146;28;20426;-92
2023/06/11 10:45:10;;;;;;;5.57;5.07;;;33.10;45.00;;;;;;5069700;28;20483;-90
2023/06/11 10:47:49;;;;;;;5.10;4.70;;;33.30;43.50;;;;;;5086327;28;20506;-90
2023/06/11 10:50:23;;;;;;;5.45;5.00;;;33.60;44.90;;;;;;5086352;28;20417;-92
2023/06/11 10:52:56;;;;;;;5.18;4.68;;;33.90;43.70;;;;;;5086482;28;20448;-90
2023/06/11 10:55:23;;;;;;;5.95;5.38;;;34.10;41.90;;;;;;5086235;28;20579;-91
2023/06/11 10:57:53;;;;;;;5.20;4.80;;;34.30;41.90;;;;;;5086625;28;20888;-90
2023/06/11 11:00:19;;;;;;;5.07;4.67;;;34.40;39.70;;;;;;5086389;28;20425;-92
2023/06/11 11:02:46;;;;;;;4.68;4.28;;;34.50;39.60;;;;;;5069178;28;20441;-91
2023/06/11 11:05:12;;;;;;;5.25;4.75;;;34.70;39.20;;;;;;5085992;28;20920;-91
2023/06/11 11:07:38;;;;;;;5.13;4.72;;;35.00;39.30;;;;;;5085127;28;20421;-91
2023/06/11 11:10:05;;;;;;;5.35;4.85;;;35.10;37.40;;;;;;5068832;28;20398;-92
2023/06/11 11:12:39;;;;;;;4.90;4.55;;;34.90;38.50;;;;;;5085831;28;20390;-92
2023/06/11 11:15:05;;;;;;;4.68;4.32;;;34.70;36.80;;;;;;5086233;28;20819;-90
2023/06/11 11:17:32;;;;;;;5.50;4.50;;;34.70;38.70;;;;;;5085359;28;20406;-90
2023/06/11 11:19:58;;;;;;;5.13;4.63;;;34.80;37.70;;;;;;5085605;28;20402;-91
2023/06/11 11:22:26;;;;;;;4.85;4.32;;;34.70;38.70;;;;;;5068453;28;20437;-90
2023/06/11 11:24:52;;;;;;;5.13;4.35;;;34.60;37.30;;;;;;5068439;28;20487;-89
2023/06/11 11:27:22;;;;;;;4.40;4.00;;;34.60;38.20;;;;;;5068499;28;20687;-91
2023/06/11 11:29:48;;;;;;;4.80;4.40;;;34.50;38.00;;;;;;5068718;28;20430;-91
2023/06/11 11:32:14;;;;;;;4.60;4.20;;;34.60;37.40;;;;;;5085397;28;20495;-93
2023/06/11 11:34:40;;;;;;;4.70;4.30;;;34.80;37.70;;;;;;5068649;28;21041;-92
2023/06/11 11:37:06;;;;;;;4.80;4.40;;;34.90;36.70;;;;;;5068779;28;20403;-91
2023/06/11 11:39:32;;;;;;;4.70;4.30;;;35.20;37.00;;;;;;5085481;28;20408;-92
2023/06/11 11:41:59;;;;;;;5.15;4.25;;;35.60;36.00;;;;;;5085676;28;20429;-91
2023/06/11 11:44:25;;;;;;;5.85;4.05;;;35.90;36.70;;;;;;5068463;28;20492;-91
2023/06/11 11:46:57;;;;;;;5.53;4.20;;;35.90;34.40;;;;;;5068470;28;20516;-90
2023/06/11 11:49:30;;;;;;;4.40;4.00;;;35.90;34.60;;;;;;5068088;28;20425;-89
2023/06/11 11:51:57;;;;;;;4.80;4.30;;;35.70;35.80;;;;;;5068107;28;20819;-89
2023/06/11 11:54:23;;;;;;;5.13;4.70;;;35.90;35.10;;;;;;5085037;28;20453;-88
2023/06/11 11:56:57;;;;;;;5.10;4.60;;;36.10;35.20;;;;;;5068043;28;20512;-89
2023/06/11 11:59:23;;;;;;;4.57;4.18;;;36.50;35.80;;;;;;5085207;28;20610;-89
2023/06/11 12:01:58;;;;;;;4.90;4.50;;;36.80;36.10;;;;;;5085092;28;20430;-89
2023/06/11 12:04:38;;;;;;;5.18;4.43;;;37.00;36.30;;;;;;5085095;28;20414;-89
2023/06/11 12:07:10;;;;;;;5.00;4.60;;;37.00;34.30;;;;;;5085635;28;20414;-88
2023/06/11 12:09:38;;;;;;;5.05;4.65;;;36.90;35.50;;;;;;5065766;28;20939;-88
2023/06/11 12:12:05;;;;;;;4.93;4.53;;;36.90;35.40;;;;;;5084746;28;20419;-87
2023/06/11 12:14:31;;;;;;;4.18;3.88;;;37.30;34.60;;;;;;5084278;28;20428;-90
2023/06/11 12:16:57;;;;;;;5.80;4.00;;;37.70;36.50;;;;;;5084404;28;20406;-89
2023/06/11 12:19:23;;;;;;;5.25;4.43;;;38.10;34.90;;;;;;5084802;28;20414;-89
2023/06/11 12:21:48;;;;;;;4.38;3.97;;;38.40;33.00;;;;;;5067424;28;20502;-89
2023/06/11 12:24:15;;;;;;;4.60;4.18;;;38.50;34.20;;;;;;5084707;28;20408;-88
2023/06/11 12:26:51;;;;;;;4.57;4.18;;;38.30;34.30;;;;;;5084190;28;20434;-90
2023/06/11 12:29:17;;;;;;;4.72;4.32;;;37.90;32.00;;;;;;5067614;28;20414;-89
2023/06/11 12:31:43;;;;;;;5.07;4.55;;;37.30;31.10;;;;;;5068148;28;20398;-90
2023/06/11 12:34:14;;;;;;;6.10;4.70;;;36.70;32.30;;;;;;5067791;28;20417;-89
2023/06/11 12:36:40;;;;;;;4.93;4.07;;;36.60;34.10;;;;;;5067862;28;20490;-89